sensor_id;sensor_type;location;lat;lon;timestamp;P1;durP1;ratioP1;P2;durP2;ratioP2
21091;SDS011;10704;42.678;23.288;2023-05-21T00:01:51;17.25;;;12.32;;
21091;SDS011;10704;42.678;23.288;2023-05-21T00:04:17;17.75;;;12.23;;
21091;SDS011;10704;42.678;23.288;2023-05-21T00:06:42;16.48;;;12.90;;
21091;SDS011;10704;42.678;23.288;2023-05-21T00:09:08;19.02;;;12.07;;
21091;SDS011;10704;42.678;23.288;2023-05-21T00:11:37;19.23;;;12.65;;
21091;SDS011;10704;42.678;23.288;2023-05-21T00:14:03;17.30;;;12.48;;
21091;SDS011;10704;42.678;23.288;2023-05-21T00:16:29;16.15;;;12.18;;
21091;SDS011;10704;42.678;23.288;2023-05-21T00:18:55;20.95;;;13.32;;
21091;SDS011;10704;42.678;23.288;2023-05-21T00:21:22;21.85;;;12.75;;
21091;SDS011;10704;42.678;23.288;2023-05-21T00:23:50;22.13;;;13.43;;
21091;SDS011;10704;42.678;23.288;2023-05-21T00:26:37;20.10;;;14.30;;
21091;SDS011;10704;42.678;23.288;2023-05-21T00:29:03;18.65;;;13.20;;
21091;SDS011;10704;42.678;23.288;2023-05-21T00:31:28;23.42;;;13.45;;
21091;SDS011;10704;42.678;23.288;2023-05-21T00:33:56;22.48;;;13.85;;
21091;SDS011;10704;42.678;23.288;2023-05-21T00:36:22;18.23;;;12.98;;
21091;SDS011;10704;42.678;23.288;2023-05-21T00:42:35;17.20;;;12.52;;
21091;SDS011;10704;42.678;23.288;2023-05-21T00:45:06;20.38;;;12.95;;
21091;SDS011;10704;42.678;23.288;2023-05-21T00:47:32;19.45;;;13.35;;
21091;SDS011;10704;42.678;23.288;2023-05-21T00:50:00;20.15;;;13.23;;
21091;SDS011;10704;42.678;23.288;2023-05-21T00:52:27;18.60;;;12.70;;
21091;SDS011;10704;42.678;23.288;2023-05-21T00:54:53;19.08;;;12.68;;
21091;SDS011;10704;42.678;23.288;2023-05-21T01:04:24;18.58;;;11.88;;
21091;SDS011;10704;42.678;23.288;2023-05-21T01:06:50;17.83;;;11.98;;
21091;SDS011;10704;42.678;23.288;2023-05-21T01:09:19;17.00;;;12.25;;
21091;SDS011;10704;42.678;23.288;2023-05-21T01:11:46;22.48;;;13.15;;
21091;SDS011;10704;42.678;23.288;2023-05-21T01:14:15;18.30;;;12.40;;
21091;SDS011;10704;42.678;23.288;2023-05-21T01:16:43;17.92;;;12.18;;
21091;SDS011;10704;42.678;23.288;2023-05-21T01:19:15;20.08;;;12.88;;
21091;SDS011;10704;42.678;23.288;2023-05-21T01:24:50;19.10;;;11.88;;
21091;SDS011;10704;42.678;23.288;2023-05-21T01:27:19;18.92;;;12.77;;
21091;SDS011;10704;42.678;23.288;2023-05-21T01:34:07;17.45;;;11.93;;
21091;SDS011;10704;42.678;23.288;2023-05-21T01:43:28;16.52;;;11.88;;
21091;SDS011;10704;42.678;23.288;2023-05-21T01:45:57;19.40;;;12.27;;
21091;SDS011;10704;42.678;23.288;2023-05-21T01:48:26;17.95;;;11.73;;
21091;SDS011;10704;42.678;23.288;2023-05-21T01:50:53;16.90;;;12.23;;
21091;SDS011;10704;42.678;23.288;2023-05-21T01:53:21;23.45;;;13.48;;
21091;SDS011;10704;42.678;23.288;2023-05-21T01:55:48;16.23;;;11.13;;
21091;SDS011;10704;42.678;23.288;2023-05-21T01:58:14;20.83;;;13.02;;
21091;SDS011;10704;42.678;23.288;2023-05-21T02:00:40;22.70;;;13.57;;
21091;SDS011;10704;42.678;23.288;2023-05-21T02:03:06;19.77;;;12.23;;
21091;SDS011;10704;42.678;23.288;2023-05-21T02:05:33;19.58;;;11.73;;
21091;SDS011;10704;42.678;23.288;2023-05-21T02:07:59;21.40;;;11.70;;
21091;SDS011;10704;42.678;23.288;2023-05-21T02:10:26;16.63;;;12.18;;
21091;SDS011;10704;42.678;23.288;2023-05-21T02:12:52;19.55;;;11.60;;
21091;SDS011;10704;42.678;23.288;2023-05-21T02:15:18;15.85;;;11.45;;
21091;SDS011;10704;42.678;23.288;2023-05-21T02:17:45;17.13;;;11.73;;
21091;SDS011;10704;42.678;23.288;2023-05-21T02:20:11;15.85;;;11.82;;
21091;SDS011;10704;42.678;23.288;2023-05-21T02:22:39;17.63;;;11.65;;
21091;SDS011;10704;42.678;23.288;2023-05-21T02:25:10;17.33;;;11.38;;
21091;SDS011;10704;42.678;23.288;2023-05-21T02:27:37;19.45;;;11.77;;
21091;SDS011;10704;42.678;23.288;2023-05-21T02:30:04;17.15;;;11.48;;
21091;SDS011;10704;42.678;23.288;2023-05-21T02:32:32;17.60;;;11.50;;
21091;SDS011;10704;42.678;23.288;2023-05-21T02:34:59;16.75;;;11.15;;
21091;SDS011;10704;42.678;23.288;2023-05-21T02:37:28;16.40;;;11.23;;
21091;SDS011;10704;42.678;23.288;2023-05-21T02:39:54;16.77;;;11.13;;
21091;SDS011;10704;42.678;23.288;2023-05-21T02:42:21;16.48;;;11.48;;
21091;SDS011;10704;42.678;23.288;2023-05-21T02:44:47;18.33;;;12.27;;
21091;SDS011;10704;42.678;23.288;2023-05-21T02:47:15;14.98;;;10.80;;
21091;SDS011;10704;42.678;23.288;2023-05-21T02:49:45;18.02;;;11.35;;
21091;SDS011;10704;42.678;23.288;2023-05-21T02:52:11;18.83;;;12.02;;
21091;SDS011;10704;42.678;23.288;2023-05-21T02:54:37;16.83;;;12.23;;
21091;SDS011;10704;42.678;23.288;2023-05-21T02:57:03;19.67;;;11.20;;
21091;SDS011;10704;42.678;23.288;2023-05-21T02:59:30;17.17;;;11.82;;
21091;SDS011;10704;42.678;23.288;2023-05-21T03:01:55;16.60;;;11.85;;
21091;SDS011;10704;42.678;23.288;2023-05-21T03:07:25;16.25;;;11.80;;
21091;SDS011;10704;42.678;23.288;2023-05-21T03:09:51;19.38;;;12.55;;
21091;SDS011;10704;42.678;23.288;2023-05-21T03:12:17;20.00;;;12.43;;
21091;SDS011;10704;42.678;23.288;2023-05-21T03:14:43;20.38;;;12.93;;
21091;SDS011;10704;42.678;23.288;2023-05-21T03:24:52;17.30;;;11.25;;
21091;SDS011;10704;42.678;23.288;2023-05-21T03:27:18;21.55;;;11.68;;
21091;SDS011;10704;42.678;23.288;2023-05-21T03:29:46;24.05;;;12.68;;
21091;SDS011;10704;42.678;23.288;2023-05-21T03:32:12;20.25;;;12.48;;
21091;SDS011;10704;42.678;23.288;2023-05-21T03:34:38;18.52;;;11.63;;
21091;SDS011;10704;42.678;23.288;2023-05-21T03:37:04;15.98;;;11.07;;
21091;SDS011;10704;42.678;23.288;2023-05-21T03:39:31;14.95;;;10.88;;
21091;SDS011;10704;42.678;23.288;2023-05-21T03:41:58;16.85;;;11.65;;
21091;SDS011;10704;42.678;23.288;2023-05-21T03:44:33;18.90;;;11.65;;
21091;SDS011;10704;42.678;23.288;2023-05-21T03:47:35;15.50;;;10.88;;
21091;SDS011;10704;42.678;23.288;2023-05-21T03:53:50;16.52;;;11.50;;
21091;SDS011;10704;42.678;23.288;2023-05-21T03:56:16;16.17;;;11.02;;
21091;SDS011;10704;42.678;23.288;2023-05-21T04:02:31;19.73;;;11.15;;
21091;SDS011;10704;42.678;23.288;2023-05-21T04:04:59;15.32;;;10.40;;
21091;SDS011;10704;42.678;23.288;2023-05-21T04:07:25;18.85;;;11.10;;
21091;SDS011;10704;42.678;23.288;2023-05-21T04:09:51;22.65;;;11.77;;
21091;SDS011;10704;42.678;23.288;2023-05-21T04:12:17;18.67;;;11.52;;
21091;SDS011;10704;42.678;23.288;2023-05-21T04:14:44;16.67;;;11.13;;
21091;SDS011;10704;42.678;23.288;2023-05-21T04:17:11;18.88;;;12.68;;
21091;SDS011;10704;42.678;23.288;2023-05-21T04:27:27;16.23;;;10.43;;
21091;SDS011;10704;42.678;23.288;2023-05-21T04:37:29;18.90;;;11.05;;
21091;SDS011;10704;42.678;23.288;2023-05-21T04:40:00;17.52;;;11.18;;
21091;SDS011;10704;42.678;23.288;2023-05-21T04:42:26;15.57;;;11.32;;
21091;SDS011;10704;42.678;23.288;2023-05-21T04:44:54;15.60;;;10.75;;
21091;SDS011;10704;42.678;23.288;2023-05-21T04:47:23;19.25;;;10.98;;
21091;SDS011;10704;42.678;23.288;2023-05-21T04:49:49;20.33;;;11.50;;
21091;SDS011;10704;42.678;23.288;2023-05-21T04:52:16;14.52;;;10.43;;
21091;SDS011;10704;42.678;23.288;2023-05-21T04:54:42;19.83;;;11.15;;
21091;SDS011;10704;42.678;23.288;2023-05-21T04:57:10;19.42;;;11.65;;
21091;SDS011;10704;42.678;23.288;2023-05-21T04:59:36;18.90;;;11.63;;
21091;SDS011;10704;42.678;23.288;2023-05-21T05:02:02;18.83;;;11.35;;
21091;SDS011;10704;42.678;23.288;2023-05-21T05:04:29;17.55;;;11.30;;
21091;SDS011;10704;42.678;23.288;2023-05-21T05:10:44;18.90;;;10.73;;
21091;SDS011;10704;42.678;23.288;2023-05-21T05:13:10;21.05;;;11.52;;
21091;SDS011;10704;42.678;23.288;2023-05-21T05:15:36;18.92;;;11.05;;
21091;SDS011;10704;42.678;23.288;2023-05-21T05:18:02;15.38;;;10.15;;
21091;SDS011;10704;42.678;23.288;2023-05-21T05:20:28;17.98;;;11.60;;
21091;SDS011;10704;42.678;23.288;2023-05-21T05:22:55;17.63;;;10.45;;
21091;SDS011;10704;42.678;23.288;2023-05-21T05:25:22;13.98;;;10.05;;
21091;SDS011;10704;42.678;23.288;2023-05-21T05:27:48;16.75;;;10.23;;
21091;SDS011;10704;42.678;23.288;2023-05-21T05:30:13;15.93;;;10.18;;
21091;SDS011;10704;42.678;23.288;2023-05-21T05:40:14;17.92;;;11.00;;
21091;SDS011;10704;42.678;23.288;2023-05-21T05:42:41;17.58;;;10.45;;
21091;SDS011;10704;42.678;23.288;2023-05-21T05:48:58;20.73;;;11.18;;
21091;SDS011;10704;42.678;23.288;2023-05-21T05:51:24;21.30;;;11.57;;
21091;SDS011;10704;42.678;23.288;2023-05-21T05:56:21;16.95;;;9.75;;
21091;SDS011;10704;42.678;23.288;2023-05-21T05:58:57;21.08;;;11.77;;
21091;SDS011;10704;42.678;23.288;2023-05-21T06:05:11;17.20;;;10.20;;
21091;SDS011;10704;42.678;23.288;2023-05-21T06:07:37;20.83;;;10.50;;
21091;SDS011;10704;42.678;23.288;2023-05-21T06:10:05;16.40;;;10.07;;
21091;SDS011;10704;42.678;23.288;2023-05-21T06:12:32;16.00;;;9.68;;
21091;SDS011;10704;42.678;23.288;2023-05-21T06:14:58;17.00;;;9.70;;
21091;SDS011;10704;42.678;23.288;2023-05-21T06:17:24;15.43;;;9.05;;
21091;SDS011;10704;42.678;23.288;2023-05-21T06:19:51;16.17;;;8.43;;
21091;SDS011;10704;42.678;23.288;2023-05-21T06:22:18;10.85;;;6.63;;
21091;SDS011;10704;42.678;23.288;2023-05-21T06:28:31;13.30;;;7.97;;
21091;SDS011;10704;42.678;23.288;2023-05-21T06:30:58;12.32;;;6.13;;
21091;SDS011;10704;42.678;23.288;2023-05-21T06:33:26;15.57;;;6.28;;
21091;SDS011;10704;42.678;23.288;2023-05-21T06:35:52;9.93;;;6.13;;
21091;SDS011;10704;42.678;23.288;2023-05-21T06:38:18;11.35;;;5.63;;
21091;SDS011;10704;42.678;23.288;2023-05-21T06:40:44;9.57;;;6.25;;
21091;SDS011;10704;42.678;23.288;2023-05-21T06:43:18;14.98;;;6.88;;
21091;SDS011;10704;42.678;23.288;2023-05-21T06:46:02;13.15;;;6.82;;
21091;SDS011;10704;42.678;23.288;2023-05-21T06:48:36;12.77;;;7.47;;
21091;SDS011;10704;42.678;23.288;2023-05-21T06:51:02;13.57;;;7.05;;
21091;SDS011;10704;42.678;23.288;2023-05-21T06:53:28;16.98;;;7.20;;
21091;SDS011;10704;42.678;23.288;2023-05-21T06:55:54;11.65;;;6.82;;
21091;SDS011;10704;42.678;23.288;2023-05-21T06:58:34;14.00;;;7.47;;
21091;SDS011;10704;42.678;23.288;2023-05-21T07:01:00;13.52;;;7.15;;
21091;SDS011;10704;42.678;23.288;2023-05-21T07:03:26;13.95;;;7.28;;
21091;SDS011;10704;42.678;23.288;2023-05-21T07:05:52;17.33;;;7.35;;
21091;SDS011;10704;42.678;23.288;2023-05-21T07:08:19;15.95;;;8.73;;
21091;SDS011;10704;42.678;23.288;2023-05-21T07:10:45;14.63;;;7.68;;
21091;SDS011;10704;42.678;23.288;2023-05-21T07:13:11;14.77;;;7.18;;
21091;SDS011;10704;42.678;23.288;2023-05-21T07:15:37;14.13;;;7.45;;
21091;SDS011;10704;42.678;23.288;2023-05-21T07:18:03;13.10;;;6.65;;
21091;SDS011;10704;42.678;23.288;2023-05-21T07:20:30;12.07;;;6.65;;
21091;SDS011;10704;42.678;23.288;2023-05-21T07:23:00;10.93;;;6.25;;
21091;SDS011;10704;42.678;23.288;2023-05-21T07:25:26;11.52;;;6.47;;
21091;SDS011;10704;42.678;23.288;2023-05-21T07:27:52;13.23;;;6.30;;
21091;SDS011;10704;42.678;23.288;2023-05-21T07:30:18;9.23;;;6.35;;
21091;SDS011;10704;42.678;23.288;2023-05-21T07:32:45;13.75;;;6.82;;
21091;SDS011;10704;42.678;23.288;2023-05-21T07:35:11;9.63;;;5.80;;
21091;SDS011;10704;42.678;23.288;2023-05-21T07:37:37;12.15;;;6.07;;
21091;SDS011;10704;42.678;23.288;2023-05-21T07:40:03;9.88;;;6.40;;
21091;SDS011;10704;42.678;23.288;2023-05-21T07:42:30;9.85;;;6.40;;
21091;SDS011;10704;42.678;23.288;2023-05-21T07:44:56;9.73;;;5.93;;
21091;SDS011;10704;42.678;23.288;2023-05-21T07:47:24;12.10;;;5.88;;
21091;SDS011;10704;42.678;23.288;2023-05-21T07:49:50;12.18;;;6.35;;
21091;SDS011;10704;42.678;23.288;2023-05-21T07:52:16;8.55;;;5.28;;
21091;SDS011;10704;42.678;23.288;2023-05-21T07:54:42;11.05;;;5.57;;
21091;SDS011;10704;42.678;23.288;2023-05-21T07:57:08;12.32;;;5.85;;
21091;SDS011;10704;42.678;23.288;2023-05-21T08:00:00;8.93;;;4.70;;
21091;SDS011;10704;42.678;23.288;2023-05-21T08:02:29;12.57;;;5.25;;
21091;SDS011;10704;42.678;23.288;2023-05-21T08:04:55;11.63;;;5.22;;
21091;SDS011;10704;42.678;23.288;2023-05-21T08:07:23;11.50;;;5.57;;
21091;SDS011;10704;42.678;23.288;2023-05-21T08:09:49;12.35;;;5.22;;
21091;SDS011;10704;42.678;23.288;2023-05-21T08:12:16;11.07;;;4.55;;
21091;SDS011;10704;42.678;23.288;2023-05-21T08:14:43;12.13;;;4.35;;
21091;SDS011;10704;42.678;23.288;2023-05-21T08:17:11;8.52;;;4.40;;
21091;SDS011;10704;42.678;23.288;2023-05-21T08:19:37;10.05;;;3.85;;
21091;SDS011;10704;42.678;23.288;2023-05-21T08:22:03;9.50;;;4.65;;
21091;SDS011;10704;42.678;23.288;2023-05-21T08:24:31;8.35;;;4.18;;
21091;SDS011;10704;42.678;23.288;2023-05-21T08:30:07;9.85;;;4.22;;
21091;SDS011;10704;42.678;23.288;2023-05-21T08:46:48;10.88;;;4.03;;
21091;SDS011;10704;42.678;23.288;2023-05-21T08:49:16;11.02;;;4.82;;
21091;SDS011;10704;42.678;23.288;2023-05-21T08:51:43;11.20;;;4.15;;
21091;SDS011;10704;42.678;23.288;2023-05-21T09:01:18;8.88;;;3.88;;
21091;SDS011;10704;42.678;23.288;2023-05-21T09:03:49;8.15;;;3.90;;
21091;SDS011;10704;42.678;23.288;2023-05-21T09:06:17;10.07;;;3.95;;
21091;SDS011;10704;42.678;23.288;2023-05-21T09:08:44;6.57;;;4.22;;
21091;SDS011;10704;42.678;23.288;2023-05-21T09:15:28;7.70;;;4.55;;
21091;SDS011;10704;42.678;23.288;2023-05-21T09:21:28;11.95;;;4.55;;
21091;SDS011;10704;42.678;23.288;2023-05-21T09:31:03;13.30;;;6.90;;
21091;SDS011;10704;42.678;23.288;2023-05-21T09:33:29;18.75;;;10.55;;
21091;SDS011;10704;42.678;23.288;2023-05-21T09:46:38;18.92;;;4.18;;
21091;SDS011;10704;42.678;23.288;2023-05-21T09:49:05;7.07;;;3.42;;
21091;SDS011;10704;42.678;23.288;2023-05-21T09:51:46;8.05;;;4.03;;
21091;SDS011;10704;42.678;23.288;2023-05-21T09:54:19;9.77;;;3.78;;
21091;SDS011;10704;42.678;23.288;2023-05-21T09:56:46;6.65;;;3.28;;
21091;SDS011;10704;42.678;23.288;2023-05-21T09:59:12;9.38;;;4.38;;
21091;SDS011;10704;42.678;23.288;2023-05-21T10:01:38;8.00;;;4.15;;
21091;SDS011;10704;42.678;23.288;2023-05-21T10:04:07;8.68;;;3.60;;
21091;SDS011;10704;42.678;23.288;2023-05-21T10:06:41;9.30;;;4.05;;
21091;SDS011;10704;42.678;23.288;2023-05-21T10:09:11;11.27;;;4.15;;
21091;SDS011;10704;42.678;23.288;2023-05-21T10:11:39;7.38;;;4.20;;
21091;SDS011;10704;42.678;23.288;2023-05-21T10:17:56;6.88;;;4.05;;
21091;SDS011;10704;42.678;23.288;2023-05-21T10:20:23;8.68;;;3.95;;
21091;SDS011;10704;42.678;23.288;2023-05-21T10:22:49;13.65;;;4.13;;
21091;SDS011;10704;42.678;23.288;2023-05-21T10:25:15;7.68;;;4.20;;
21091;SDS011;10704;42.678;23.288;2023-05-21T10:27:42;9.73;;;4.32;;
21091;SDS011;10704;42.678;23.288;2023-05-21T10:30:08;10.60;;;4.78;;
21091;SDS011;10704;42.678;23.288;2023-05-21T10:32:35;9.13;;;4.22;;
21091;SDS011;10704;42.678;23.288;2023-05-21T10:35:06;9.40;;;4.03;;
21091;SDS011;10704;42.678;23.288;2023-05-21T10:37:33;9.02;;;4.03;;
21091;SDS011;10704;42.678;23.288;2023-05-21T10:39:59;9.93;;;3.80;;
21091;SDS011;10704;42.678;23.288;2023-05-21T11:01:03;7.88;;;4.07;;
21091;SDS011;10704;42.678;23.288;2023-05-21T11:03:31;9.40;;;4.40;;
21091;SDS011;10704;42.678;23.288;2023-05-21T11:05:58;8.88;;;4.68;;
21091;SDS011;10704;42.678;23.288;2023-05-21T11:26:15;10.60;;;4.47;;
21091;SDS011;10704;42.678;23.288;2023-05-21T11:28:42;10.55;;;4.40;;
21091;SDS011;10704;42.678;23.288;2023-05-21T11:31:21;13.60;;;4.65;;
21091;SDS011;10704;42.678;23.288;2023-05-21T11:34:13;8.50;;;4.50;;
21091;SDS011;10704;42.678;23.288;2023-05-21T11:36:43;11.80;;;4.18;;
21091;SDS011;10704;42.678;23.288;2023-05-21T11:39:18;9.40;;;4.55;;
21091;SDS011;10704;42.678;23.288;2023-05-21T11:41:57;13.43;;;4.78;;
21091;SDS011;10704;42.678;23.288;2023-05-21T11:44:39;8.45;;;4.55;;
21091;SDS011;10704;42.678;23.288;2023-05-21T11:47:10;8.05;;;4.90;;
21091;SDS011;10704;42.678;23.288;2023-05-21T11:49:39;8.30;;;4.70;;
21091;SDS011;10704;42.678;23.288;2023-05-21T11:52:05;10.88;;;5.28;;
21091;SDS011;10704;42.678;23.288;2023-05-21T11:54:37;12.18;;;4.93;;
21091;SDS011;10704;42.678;23.288;2023-05-21T11:57:05;12.68;;;4.63;;
21091;SDS011;10704;42.678;23.288;2023-05-21T12:03:19;10.32;;;4.40;;
21091;SDS011;10704;42.678;23.288;2023-05-21T12:09:41;11.65;;;6.25;;
21091;SDS011;10704;42.678;23.288;2023-05-21T12:12:09;9.68;;;5.50;;
21091;SDS011;10704;42.678;23.288;2023-05-21T12:22:13;9.13;;;4.40;;
21091;SDS011;10704;42.678;23.288;2023-05-21T12:24:41;9.77;;;5.00;;
21091;SDS011;10704;42.678;23.288;2023-05-21T12:27:08;19.67;;;12.38;;
21091;SDS011;10704;42.678;23.288;2023-05-21T12:33:24;9.68;;;5.22;;
21091;SDS011;10704;42.678;23.288;2023-05-21T12:35:57;10.52;;;5.25;;
21091;SDS011;10704;42.678;23.288;2023-05-21T12:38:23;8.18;;;4.53;;
21091;SDS011;10704;42.678;23.288;2023-05-21T12:40:54;10.90;;;5.00;;
21091;SDS011;10704;42.678;23.288;2023-05-21T12:43:20;14.23;;;6.32;;
21091;SDS011;10704;42.678;23.288;2023-05-21T12:45:46;9.35;;;4.50;;
21091;SDS011;10704;42.678;23.288;2023-05-21T12:48:12;14.10;;;5.85;;
21091;SDS011;10704;42.678;23.288;2023-05-21T12:50:38;12.85;;;6.63;;
21091;SDS011;10704;42.678;23.288;2023-05-21T12:53:07;11.68;;;5.03;;
21091;SDS011;10704;42.678;23.288;2023-05-21T12:55:33;8.70;;;5.22;;
21091;SDS011;10704;42.678;23.288;2023-05-21T13:01:47;8.55;;;5.20;;
21091;SDS011;10704;42.678;23.288;2023-05-21T13:04:13;8.20;;;5.60;;
21091;SDS011;10704;42.678;23.288;2023-05-21T13:06:42;11.90;;;4.78;;
21091;SDS011;10704;42.678;23.288;2023-05-21T13:09:08;12.00;;;5.45;;
21091;SDS011;10704;42.678;23.288;2023-05-21T13:11:34;9.70;;;5.47;;
21091;SDS011;10704;42.678;23.288;2023-05-21T13:14:00;12.70;;;5.82;;
21091;SDS011;10704;42.678;23.288;2023-05-21T13:16:26;10.77;;;4.78;;
21091;SDS011;10704;42.678;23.288;2023-05-21T13:18:52;12.90;;;5.47;;
21091;SDS011;10704;42.678;23.288;2023-05-21T13:25:15;14.50;;;5.45;;
21091;SDS011;10704;42.678;23.288;2023-05-21T13:27:45;9.27;;;5.28;;
21091;SDS011;10704;42.678;23.288;2023-05-21T13:30:11;9.85;;;5.75;;
21091;SDS011;10704;42.678;23.288;2023-05-21T13:32:38;9.60;;;5.00;;
21091;SDS011;10704;42.678;23.288;2023-05-21T13:35:05;8.95;;;5.30;;
21091;SDS011;10704;42.678;23.288;2023-05-21T13:37:32;10.23;;;4.63;;
21091;SDS011;10704;42.678;23.288;2023-05-21T13:40:00;11.18;;;5.28;;
21091;SDS011;10704;42.678;23.288;2023-05-21T13:46:18;9.20;;;4.90;;
21091;SDS011;10704;42.678;23.288;2023-05-21T13:48:44;13.30;;;5.22;;
21091;SDS011;10704;42.678;23.288;2023-05-21T13:51:10;12.73;;;5.30;;
21091;SDS011;10704;42.678;23.288;2023-05-21T13:53:36;18.55;;;5.72;;
21091;SDS011;10704;42.678;23.288;2023-05-21T13:56:02;9.10;;;4.80;;
21091;SDS011;10704;42.678;23.288;2023-05-21T13:58:28;9.93;;;4.93;;
21091;SDS011;10704;42.678;23.288;2023-05-21T14:00:59;10.52;;;4.70;;
21091;SDS011;10704;42.678;23.288;2023-05-21T14:03:25;10.10;;;5.50;;
21091;SDS011;10704;42.678;23.288;2023-05-21T14:05:52;7.63;;;4.63;;
21091;SDS011;10704;42.678;23.288;2023-05-21T14:08:19;10.23;;;5.00;;
21091;SDS011;10704;42.678;23.288;2023-05-21T14:10:47;10.30;;;5.32;;
21091;SDS011;10704;42.678;23.288;2023-05-21T14:13:13;8.82;;;4.95;;
21091;SDS011;10704;42.678;23.288;2023-05-21T14:15:41;7.38;;;4.20;;
21091;SDS011;10704;42.678;23.288;2023-05-21T14:18:07;12.13;;;4.35;;
21091;SDS011;10704;42.678;23.288;2023-05-21T14:20:36;11.77;;;5.13;;
21091;SDS011;10704;42.678;23.288;2023-05-21T14:30:50;7.88;;;4.72;;
21091;SDS011;10704;42.678;23.288;2023-05-21T14:33:16;11.95;;;4.60;;
21091;SDS011;10704;42.678;23.288;2023-05-21T14:35:42;11.13;;;5.13;;
21091;SDS011;10704;42.678;23.288;2023-05-21T14:38:08;10.10;;;5.10;;
21091;SDS011;10704;42.678;23.288;2023-05-21T14:40:34;7.63;;;5.05;;
21091;SDS011;10704;42.678;23.288;2023-05-21T14:43:01;13.82;;;4.93;;
21091;SDS011;10704;42.678;23.288;2023-05-21T14:45:27;9.23;;;4.50;;
21091;SDS011;10704;42.678;23.288;2023-05-21T14:51:40;11.45;;;6.30;;
21091;SDS011;10704;42.678;23.288;2023-05-21T14:54:07;9.35;;;4.90;;
21091;SDS011;10704;42.678;23.288;2023-05-21T14:56:33;12.30;;;4.80;;
21091;SDS011;10704;42.678;23.288;2023-05-21T14:58:59;10.45;;;5.00;;
21091;SDS011;10704;42.678;23.288;2023-05-21T15:01:25;9.43;;;5.22;;
21091;SDS011;10704;42.678;23.288;2023-05-21T15:03:51;10.27;;;4.93;;
21091;SDS011;10704;42.678;23.288;2023-05-21T15:06:17;7.95;;;5.25;;
21091;SDS011;10704;42.678;23.288;2023-05-21T15:08:43;7.78;;;4.57;;
21091;SDS011;10704;42.678;23.288;2023-05-21T15:11:09;13.80;;;5.28;;
21091;SDS011;10704;42.678;23.288;2023-05-21T15:13:35;9.30;;;5.78;;
21091;SDS011;10704;42.678;23.288;2023-05-21T15:23:36;12.95;;;7.40;;
21091;SDS011;10704;42.678;23.288;2023-05-21T15:28:53;13.05;;;7.22;;
21091;SDS011;10704;42.678;23.288;2023-05-21T15:31:20;9.98;;;5.68;;
21091;SDS011;10704;42.678;23.288;2023-05-21T15:33:46;10.43;;;5.60;;
21091;SDS011;10704;42.678;23.288;2023-05-21T15:36:11;14.85;;;6.60;;
21091;SDS011;10704;42.678;23.288;2023-05-21T15:38:38;11.82;;;6.40;;
21091;SDS011;10704;42.678;23.288;2023-05-21T15:41:04;15.80;;;6.80;;
21091;SDS011;10704;42.678;23.288;2023-05-21T15:43:30;10.85;;;5.50;;
21091;SDS011;10704;42.678;23.288;2023-05-21T15:45:56;12.75;;;6.07;;
21091;SDS011;10704;42.678;23.288;2023-05-21T15:48:22;12.07;;;5.93;;
21091;SDS011;10704;42.678;23.288;2023-05-21T15:50:48;12.77;;;6.45;;
21091;SDS011;10704;42.678;23.288;2023-05-21T15:53:14;10.02;;;6.13;;
21091;SDS011;10704;42.678;23.288;2023-05-21T15:55:40;13.95;;;7.22;;
21091;SDS011;10704;42.678;23.288;2023-05-21T15:58:06;16.38;;;6.60;;
21091;SDS011;10704;42.678;23.288;2023-05-21T16:00:32;11.18;;;5.22;;
21091;SDS011;10704;42.678;23.288;2023-05-21T16:02:58;16.40;;;5.85;;
21091;SDS011;10704;42.678;23.288;2023-05-21T16:05:24;11.55;;;5.72;;
21091;SDS011;10704;42.678;23.288;2023-05-21T16:07:51;10.60;;;5.35;;
21091;SDS011;10704;42.678;23.288;2023-05-21T16:10:17;10.13;;;4.90;;
21091;SDS011;10704;42.678;23.288;2023-05-21T16:12:43;10.48;;;4.95;;
21091;SDS011;10704;42.678;23.288;2023-05-21T16:15:09;8.85;;;4.38;;
21091;SDS011;10704;42.678;23.288;2023-05-21T16:17:35;9.13;;;4.55;;
21091;SDS011;10704;42.678;23.288;2023-05-21T16:20:00;9.55;;;4.18;;
21091;SDS011;10704;42.678;23.288;2023-05-21T16:22:26;8.57;;;4.30;;
21091;SDS011;10704;42.678;23.288;2023-05-21T16:24:52;12.07;;;4.72;;
21091;SDS011;10704;42.678;23.288;2023-05-21T16:27:19;9.75;;;4.57;;
21091;SDS011;10704;42.678;23.288;2023-05-21T16:29:45;10.85;;;5.00;;
21091;SDS011;10704;42.678;23.288;2023-05-21T16:32:11;8.05;;;4.10;;
21091;SDS011;10704;42.678;23.288;2023-05-21T16:34:37;8.48;;;4.28;;
21091;SDS011;10704;42.678;23.288;2023-05-21T16:40:51;10.75;;;6.15;;
21091;SDS011;10704;42.678;23.288;2023-05-21T16:43:17;12.70;;;4.97;;
21091;SDS011;10704;42.678;23.288;2023-05-21T16:45:43;11.27;;;5.20;;
21091;SDS011;10704;42.678;23.288;2023-05-21T16:48:11;12.63;;;4.28;;
21091;SDS011;10704;42.678;23.288;2023-05-21T16:50:37;7.82;;;4.75;;
21091;SDS011;10704;42.678;23.288;2023-05-21T16:53:04;7.68;;;4.85;;
21091;SDS011;10704;42.678;23.288;2023-05-21T16:55:32;12.68;;;5.30;;
21091;SDS011;10704;42.678;23.288;2023-05-21T16:57:59;9.73;;;4.57;;
21091;SDS011;10704;42.678;23.288;2023-05-21T17:00:26;11.95;;;4.95;;
21091;SDS011;10704;42.678;23.288;2023-05-21T17:06:11;12.43;;;5.93;;
21091;SDS011;10704;42.678;23.288;2023-05-21T17:12:26;9.30;;;5.03;;
21091;SDS011;10704;42.678;23.288;2023-05-21T17:14:52;8.20;;;4.60;;
21091;SDS011;10704;42.678;23.288;2023-05-21T17:17:18;10.63;;;4.97;;
21091;SDS011;10704;42.678;23.288;2023-05-21T17:19:43;12.55;;;5.32;;
21091;SDS011;10704;42.678;23.288;2023-05-21T17:22:09;9.38;;;5.28;;
21091;SDS011;10704;42.678;23.288;2023-05-21T17:24:35;11.90;;;5.40;;
21091;SDS011;10704;42.678;23.288;2023-05-21T17:29:53;8.70;;;5.10;;
21091;SDS011;10704;42.678;23.288;2023-05-21T17:36:06;13.77;;;7.10;;
21091;SDS011;10704;42.678;23.288;2023-05-21T17:38:32;8.93;;;5.43;;
21091;SDS011;10704;42.678;23.288;2023-05-21T17:40:58;10.68;;;5.93;;
21091;SDS011;10704;42.678;23.288;2023-05-21T17:46:29;14.70;;;8.52;;
21091;SDS011;10704;42.678;23.288;2023-05-21T17:52:43;13.90;;;6.35;;
21091;SDS011;10704;42.678;23.288;2023-05-21T17:55:09;10.98;;;5.68;;
21091;SDS011;10704;42.678;23.288;2023-05-21T17:57:46;11.35;;;6.72;;
21091;SDS011;10704;42.678;23.288;2023-05-21T18:00:12;12.32;;;6.15;;
21091;SDS011;10704;42.678;23.288;2023-05-21T18:12:58;8.52;;;5.35;;
21091;SDS011;10704;42.678;23.288;2023-05-21T18:15:23;13.20;;;5.55;;
21091;SDS011;10704;42.678;23.288;2023-05-21T18:17:49;13.23;;;5.90;;
21091;SDS011;10704;42.678;23.288;2023-05-21T18:20:15;12.85;;;6.38;;
21091;SDS011;10704;42.678;23.288;2023-05-21T18:22:42;13.10;;;5.95;;
21091;SDS011;10704;42.678;23.288;2023-05-21T18:25:08;11.18;;;6.80;;
21091;SDS011;10704;42.678;23.288;2023-05-21T18:27:35;11.52;;;6.05;;
21091;SDS011;10704;42.678;23.288;2023-05-21T18:33:49;11.73;;;6.35;;
21091;SDS011;10704;42.678;23.288;2023-05-21T18:36:15;13.02;;;6.57;;
21091;SDS011;10704;42.678;23.288;2023-05-21T18:38:42;9.63;;;6.28;;
21091;SDS011;10704;42.678;23.288;2023-05-21T18:41:08;12.68;;;6.05;;
21091;SDS011;10704;42.678;23.288;2023-05-21T18:43:34;11.70;;;6.20;;
21091;SDS011;10704;42.678;23.288;2023-05-21T18:46:00;12.35;;;6.40;;
21091;SDS011;10704;42.678;23.288;2023-05-21T18:48:26;10.68;;;6.07;;